sensor_id;sensor_type;location;lat;lon;timestamp;P1;durP1;ratioP1;P2;durP2;ratioP2
14760;SDS011;7472;45.396;5.272;2022-07-30T00:00:20;3.05;;;1.77;;
14760;SDS011;7472;45.396;5.272;2022-07-30T00:02:47;3.95;;;2.10;;
14760;SDS011;7472;45.396;5.272;2022-07-30T00:05:15;6.18;;;2.30;;
14760;SDS011;7472;45.396;5.272;2022-07-30T00:07:42;2.65;;;1.80;;
14760;SDS011;7472;45.396;5.272;2022-07-30T00:10:09;4.90;;;1.90;;
14760;SDS011;7472;45.396;5.272;2022-07-30T00:12:38;7.25;;;2.00;;
14760;SDS011;7472;45.396;5.272;2022-07-30T00:15:06;6.32;;;2.45;;
14760;SDS011;7472;45.396;5.272;2022-07-30T00:17:34;5.53;;;2.22;;
14760;SDS011;7472;45.396;5.272;2022-07-30T00:20:01;5.85;;;2.63;;
14760;SDS011;7472;45.396;5.272;2022-07-30T00:22:29;5.60;;;1.73;;
14760;SDS011;7472;45.396;5.272;2022-07-30T00:24:56;4.18;;;2.35;;
14760;SDS011;7472;45.396;5.272;2022-07-30T00:27:24;3.60;;;2.60;;
14760;SDS011;7472;45.396;5.272;2022-07-30T00:29:52;2.75;;;2.22;;
14760;SDS011;7472;45.396;5.272;2022-07-30T00:32:20;3.53;;;1.80;;
14760;SDS011;7472;45.396;5.272;2022-07-30T00:34:47;3.35;;;2.13;;
14760;SDS011;7472;45.396;5.272;2022-07-30T00:37:14;5.40;;;2.38;;
14760;SDS011;7472;45.396;5.272;2022-07-30T00:39:42;3.33;;;2.08;;
14760;SDS011;7472;45.396;5.272;2022-07-30T00:42:09;4.60;;;2.50;;
14760;SDS011;7472;45.396;5.272;2022-07-30T00:44:36;6.00;;;2.10;;
14760;SDS011;7472;45.396;5.272;2022-07-30T00:47:05;7.57;;;2.10;;
14760;SDS011;7472;45.396;5.272;2022-07-30T00:49:33;6.28;;;2.47;;
14760;SDS011;7472;45.396;5.272;2022-07-30T00:52:00;3.30;;;2.20;;
14760;SDS011;7472;45.396;5.272;2022-07-30T00:54:27;3.38;;;2.20;;
14760;SDS011;7472;45.396;5.272;2022-07-30T00:56:55;3.55;;;2.05;;
14760;SDS011;7472;45.396;5.272;2022-07-30T00:59:22;6.65;;;2.05;;
14760;SDS011;7472;45.396;5.272;2022-07-30T01:01:52;4.72;;;2.00;;
14760;SDS011;7472;45.396;5.272;2022-07-30T01:04:20;4.20;;;2.30;;
14760;SDS011;7472;45.396;5.272;2022-07-30T01:06:48;4.35;;;2.30;;
14760;SDS011;7472;45.396;5.272;2022-07-30T01:09:15;6.90;;;2.30;;
14760;SDS011;7472;45.396;5.272;2022-07-30T01:11:42;4.47;;;2.03;;
14760;SDS011;7472;45.396;5.272;2022-07-30T01:14:10;6.70;;;1.77;;
14760;SDS011;7472;45.396;5.272;2022-07-30T01:16:38;3.42;;;2.10;;
14760;SDS011;7472;45.396;5.272;2022-07-30T01:19:08;4.88;;;1.83;;
14760;SDS011;7472;45.396;5.272;2022-07-30T01:21:58;2.47;;;1.98;;
14760;SDS011;7472;45.396;5.272;2022-07-30T01:24:27;4.43;;;2.10;;
14760;SDS011;7472;45.396;5.272;2022-07-30T01:26:58;5.72;;;2.55;;
14760;SDS011;7472;45.396;5.272;2022-07-30T01:29:26;3.75;;;2.42;;
14760;SDS011;7472;45.396;5.272;2022-07-30T01:31:54;5.32;;;2.63;;
14760;SDS011;7472;45.396;5.272;2022-07-30T01:34:25;2.58;;;2.22;;
14760;SDS011;7472;45.396;5.272;2022-07-30T01:36:53;6.30;;;2.20;;
14760;SDS011;7472;45.396;5.272;2022-07-30T01:39:22;6.60;;;2.95;;
14760;SDS011;7472;45.396;5.272;2022-07-30T01:41:50;4.88;;;2.20;;
14760;SDS011;7472;45.396;5.272;2022-07-30T01:44:20;6.75;;;3.00;;
14760;SDS011;7472;45.396;5.272;2022-07-30T01:46:48;6.30;;;3.00;;
14760;SDS011;7472;45.396;5.272;2022-07-30T01:49:15;5.32;;;3.00;;
14760;SDS011;7472;45.396;5.272;2022-07-30T01:51:43;5.22;;;3.00;;
14760;SDS011;7472;45.396;5.272;2022-07-30T01:54:12;3.05;;;2.30;;
14760;SDS011;7472;45.396;5.272;2022-07-30T01:56:40;2.90;;;2.28;;
14760;SDS011;7472;45.396;5.272;2022-07-30T01:59:08;2.58;;;2.25;;
14760;SDS011;7472;45.396;5.272;2022-07-30T02:01:38;4.03;;;2.10;;
14760;SDS011;7472;45.396;5.272;2022-07-30T02:04:05;4.55;;;2.25;;
14760;SDS011;7472;45.396;5.272;2022-07-30T02:06:36;3.13;;;2.03;;
14760;SDS011;7472;45.396;5.272;2022-07-30T02:09:04;4.70;;;2.25;;
14760;SDS011;7472;45.396;5.272;2022-07-30T02:11:34;2.88;;;2.22;;
14760;SDS011;7472;45.396;5.272;2022-07-30T02:14:21;3.97;;;2.25;;
14760;SDS011;7472;45.396;5.272;2022-07-30T02:16:52;3.95;;;2.15;;
14760;SDS011;7472;45.396;5.272;2022-07-30T02:19:23;5.47;;;2.47;;
14760;SDS011;7472;45.396;5.272;2022-07-30T02:21:53;6.78;;;2.00;;
14760;SDS011;7472;45.396;5.272;2022-07-30T02:24:23;4.78;;;2.38;;
14760;SDS011;7472;45.396;5.272;2022-07-30T02:26:54;3.13;;;2.22;;
14760;SDS011;7472;45.396;5.272;2022-07-30T02:29:22;4.57;;;2.50;;
14760;SDS011;7472;45.396;5.272;2022-07-30T02:31:51;5.20;;;2.42;;
14760;SDS011;7472;45.396;5.272;2022-07-30T02:34:20;6.22;;;2.40;;
14760;SDS011;7472;45.396;5.272;2022-07-30T02:36:48;3.90;;;2.28;;
14760;SDS011;7472;45.396;5.272;2022-07-30T02:39:17;2.42;;;2.22;;
14760;SDS011;7472;45.396;5.272;2022-07-30T02:41:45;1.65;;;1.50;;
14760;SDS011;7472;45.396;5.272;2022-07-30T02:44:12;4.45;;;2.40;;
14760;SDS011;7472;45.396;5.272;2022-07-30T02:46:42;3.83;;;2.15;;
14760;SDS011;7472;45.396;5.272;2022-07-30T02:49:12;4.65;;;2.10;;
14760;SDS011;7472;45.396;5.272;2022-07-30T02:51:40;4.03;;;2.10;;
14760;SDS011;7472;45.396;5.272;2022-07-30T02:54:08;3.72;;;1.67;;
14760;SDS011;7472;45.396;5.272;2022-07-30T02:56:36;3.60;;;1.70;;
14760;SDS011;7472;45.396;5.272;2022-07-30T02:59:05;4.50;;;1.85;;
14760;SDS011;7472;45.396;5.272;2022-07-30T03:01:32;4.63;;;1.65;;
14760;SDS011;7472;45.396;5.272;2022-07-30T03:04:01;3.03;;;2.10;;
14760;SDS011;7472;45.396;5.272;2022-07-30T03:06:30;3.20;;;1.85;;
14760;SDS011;7472;45.396;5.272;2022-07-30T03:08:57;5.55;;;1.88;;
14760;SDS011;7472;45.396;5.272;2022-07-30T03:11:25;1.88;;;1.77;;
14760;SDS011;7472;45.396;5.272;2022-07-30T03:13:54;2.35;;;1.85;;
14760;SDS011;7472;45.396;5.272;2022-07-30T03:16:21;4.13;;;2.40;;
14760;SDS011;7472;45.396;5.272;2022-07-30T03:18:51;4.60;;;2.28;;
14760;SDS011;7472;45.396;5.272;2022-07-30T03:21:19;8.85;;;2.20;;
14760;SDS011;7472;45.396;5.272;2022-07-30T03:23:50;5.45;;;2.08;;
14760;SDS011;7472;45.396;5.272;2022-07-30T03:26:19;3.42;;;2.42;;
14760;SDS011;7472;45.396;5.272;2022-07-30T03:28:46;1.77;;;1.67;;
14760;SDS011;7472;45.396;5.272;2022-07-30T03:31:15;3.85;;;3.55;;
14760;SDS011;7472;45.396;5.272;2022-07-30T03:33:43;4.68;;;3.03;;
14760;SDS011;7472;45.396;5.272;2022-07-30T03:36:11;6.90;;;3.15;;
14760;SDS011;7472;45.396;5.272;2022-07-30T03:38:40;4.72;;;2.97;;
14760;SDS011;7472;45.396;5.272;2022-07-30T03:41:09;4.68;;;3.03;;
14760;SDS011;7472;45.396;5.272;2022-07-30T03:43:37;7.03;;;2.50;;
14760;SDS011;7472;45.396;5.272;2022-07-30T03:46:05;4.97;;;2.22;;
14760;SDS011;7472;45.396;5.272;2022-07-30T03:48:33;5.13;;;2.05;;
14760;SDS011;7472;45.396;5.272;2022-07-30T03:51:01;3.45;;;1.67;;
14760;SDS011;7472;45.396;5.272;2022-07-30T03:53:29;5.20;;;2.20;;
14760;SDS011;7472;45.396;5.272;2022-07-30T03:55:57;4.95;;;3.20;;
14760;SDS011;7472;45.396;5.272;2022-07-30T03:58:26;5.25;;;3.13;;
14760;SDS011;7472;45.396;5.272;2022-07-30T04:00:54;3.50;;;2.95;;
14760;SDS011;7472;45.396;5.272;2022-07-30T04:03:24;3.17;;;2.75;;
14760;SDS011;7472;45.396;5.272;2022-07-30T04:05:52;6.40;;;3.35;;
14760;SDS011;7472;45.396;5.272;2022-07-30T04:08:19;3.03;;;2.70;;
14760;SDS011;7472;45.396;5.272;2022-07-30T04:10:47;2.63;;;2.42;;
14760;SDS011;7472;45.396;5.272;2022-07-30T04:13:14;4.20;;;2.95;;
14760;SDS011;7472;45.396;5.272;2022-07-30T04:15:44;7.13;;;3.05;;
14760;SDS011;7472;45.396;5.272;2022-07-30T04:18:12;3.80;;;2.70;;
14760;SDS011;7472;45.396;5.272;2022-07-30T04:20:42;6.53;;;3.22;;
14760;SDS011;7472;45.396;5.272;2022-07-30T04:23:10;5.10;;;2.88;;
14760;SDS011;7472;45.396;5.272;2022-07-30T04:25:38;3.92;;;2.45;;
14760;SDS011;7472;45.396;5.272;2022-07-30T04:28:06;3.78;;;3.05;;
14760;SDS011;7472;45.396;5.272;2022-07-30T04:30:34;5.95;;;3.00;;
14760;SDS011;7472;45.396;5.272;2022-07-30T04:33:03;3.25;;;2.75;;
14760;SDS011;7472;45.396;5.272;2022-07-30T04:35:31;5.80;;;2.78;;
14760;SDS011;7472;45.396;5.272;2022-07-30T04:37:59;5.90;;;3.10;;
14760;SDS011;7472;45.396;5.272;2022-07-30T04:40:28;4.00;;;2.95;;
14760;SDS011;7472;45.396;5.272;2022-07-30T04:42:56;4.78;;;3.10;;
14760;SDS011;7472;45.396;5.272;2022-07-30T04:45:24;5.13;;;2.88;;
14760;SDS011;7472;45.396;5.272;2022-07-30T04:47:51;3.40;;;2.58;;
14760;SDS011;7472;45.396;5.272;2022-07-30T04:50:20;5.45;;;2.70;;
14760;SDS011;7472;45.396;5.272;2022-07-30T04:52:48;6.57;;;2.72;;
14760;SDS011;7472;45.396;5.272;2022-07-30T04:55:16;6.43;;;3.00;;
14760;SDS011;7472;45.396;5.272;2022-07-30T04:57:44;4.93;;;2.38;;
14760;SDS011;7472;45.396;5.272;2022-07-30T05:00:13;6.32;;;2.72;;
14760;SDS011;7472;45.396;5.272;2022-07-30T05:02:40;5.93;;;2.35;;
14760;SDS011;7472;45.396;5.272;2022-07-30T05:05:09;7.03;;;3.13;;
14760;SDS011;7472;45.396;5.272;2022-07-30T05:07:38;6.32;;;2.75;;
14760;SDS011;7472;45.396;5.272;2022-07-30T05:10:06;4.72;;;2.47;;
14760;SDS011;7472;45.396;5.272;2022-07-30T05:12:34;4.10;;;2.35;;
14760;SDS011;7472;45.396;5.272;2022-07-30T05:15:02;3.42;;;2.35;;
14760;SDS011;7472;45.396;5.272;2022-07-30T05:17:30;5.47;;;2.58;;
14760;SDS011;7472;45.396;5.272;2022-07-30T05:19:57;2.33;;;2.13;;
14760;SDS011;7472;45.396;5.272;2022-07-30T05:22:25;3.15;;;2.30;;
14760;SDS011;7472;45.396;5.272;2022-07-30T05:24:56;7.88;;;2.60;;
14760;SDS011;7472;45.396;5.272;2022-07-30T05:27:23;3.58;;;2.63;;
14760;SDS011;7472;45.396;5.272;2022-07-30T05:29:50;3.15;;;2.20;;
14760;SDS011;7472;45.396;5.272;2022-07-30T05:32:18;4.20;;;2.30;;
14760;SDS011;7472;45.396;5.272;2022-07-30T05:34:45;3.92;;;2.90;;
14760;SDS011;7472;45.396;5.272;2022-07-30T05:37:12;4.47;;;2.17;;
14760;SDS011;7472;45.396;5.272;2022-07-30T05:39:40;4.22;;;2.35;;
14760;SDS011;7472;45.396;5.272;2022-07-30T05:42:09;3.35;;;2.40;;
14760;SDS011;7472;45.396;5.272;2022-07-30T05:44:36;4.57;;;2.60;;
14760;SDS011;7472;45.396;5.272;2022-07-30T05:47:03;4.47;;;2.88;;
14760;SDS011;7472;45.396;5.272;2022-07-30T05:49:31;2.70;;;2.50;;
14760;SDS011;7472;45.396;5.272;2022-07-30T05:51:58;8.07;;;2.97;;
14760;SDS011;7472;45.396;5.272;2022-07-30T05:54:25;2.78;;;2.55;;
14760;SDS011;7472;45.396;5.272;2022-07-30T05:56:53;3.35;;;2.35;;
14760;SDS011;7472;45.396;5.272;2022-07-30T05:59:21;4.03;;;2.67;;
14760;SDS011;7472;45.396;5.272;2022-07-30T06:01:49;5.28;;;2.60;;
14760;SDS011;7472;45.396;5.272;2022-07-30T06:04:16;4.25;;;2.80;;
14760;SDS011;7472;45.396;5.272;2022-07-30T06:06:43;8.65;;;3.45;;
14760;SDS011;7472;45.396;5.272;2022-07-30T06:09:12;4.03;;;3.35;;
14760;SDS011;7472;45.396;5.272;2022-07-30T06:11:39;3.67;;;3.10;;
14760;SDS011;7472;45.396;5.272;2022-07-30T06:14:07;3.58;;;3.20;;
14760;SDS011;7472;45.396;5.272;2022-07-30T06:16:35;3.05;;;2.70;;
14760;SDS011;7472;45.396;5.272;2022-07-30T06:19:03;4.63;;;3.33;;
14760;SDS011;7472;45.396;5.272;2022-07-30T06:21:30;6.10;;;3.80;;
14760;SDS011;7472;45.396;5.272;2022-07-30T06:23:58;4.40;;;3.30;;
14760;SDS011;7472;45.396;5.272;2022-07-30T06:26:25;3.53;;;3.22;;
14760;SDS011;7472;45.396;5.272;2022-07-30T06:28:52;6.45;;;3.65;;
14760;SDS011;7472;45.396;5.272;2022-07-30T06:31:20;4.72;;;3.53;;
14760;SDS011;7472;45.396;5.272;2022-07-30T06:33:49;3.72;;;3.35;;
14760;SDS011;7472;45.396;5.272;2022-07-30T06:36:16;4.47;;;3.42;;
14760;SDS011;7472;45.396;5.272;2022-07-30T06:38:43;3.53;;;3.22;;
14760;SDS011;7472;45.396;5.272;2022-07-30T06:41:11;4.07;;;3.67;;
14760;SDS011;7472;45.396;5.272;2022-07-30T06:43:39;5.70;;;3.47;;
14760;SDS011;7472;45.396;5.272;2022-07-30T06:46:07;5.68;;;3.53;;
14760;SDS011;7472;45.396;5.272;2022-07-30T06:48:34;7.70;;;3.03;;
14760;SDS011;7472;45.396;5.272;2022-07-30T06:51:04;4.88;;;3.30;;
14760;SDS011;7472;45.396;5.272;2022-07-30T06:53:31;4.43;;;4.03;;
14760;SDS011;7472;45.396;5.272;2022-07-30T06:55:58;5.50;;;3.80;;
14760;SDS011;7472;45.396;5.272;2022-07-30T06:58:26;4.55;;;3.60;;
14760;SDS011;7472;45.396;5.272;2022-07-30T07:00:53;5.47;;;4.05;;
14760;SDS011;7472;45.396;5.272;2022-07-30T07:03:21;4.47;;;3.80;;
14760;SDS011;7472;45.396;5.272;2022-07-30T07:05:50;5.93;;;4.10;;
14760;SDS011;7472;45.396;5.272;2022-07-30T07:08:19;5.57;;;4.10;;
14760;SDS011;7472;45.396;5.272;2022-07-30T07:10:46;6.40;;;3.50;;
14760;SDS011;7472;45.396;5.272;2022-07-30T07:13:14;5.88;;;3.80;;
14760;SDS011;7472;45.396;5.272;2022-07-30T07:15:41;5.93;;;3.38;;
14760;SDS011;7472;45.396;5.272;2022-07-30T07:18:09;9.23;;;3.78;;
14760;SDS011;7472;45.396;5.272;2022-07-30T07:20:37;4.28;;;3.38;;
14760;SDS011;7472;45.396;5.272;2022-07-30T07:23:04;4.05;;;3.13;;
14760;SDS011;7472;45.396;5.272;2022-07-30T07:25:34;7.32;;;3.13;;
14760;SDS011;7472;45.396;5.272;2022-07-30T07:28:01;5.53;;;3.60;;
14760;SDS011;7472;45.396;5.272;2022-07-30T07:30:28;4.03;;;2.40;;
14760;SDS011;7472;45.396;5.272;2022-07-30T07:32:56;6.07;;;2.88;;
14760;SDS011;7472;45.396;5.272;2022-07-30T07:35:23;3.17;;;2.50;;
14760;SDS011;7472;45.396;5.272;2022-07-30T07:37:51;4.47;;;2.53;;
14760;SDS011;7472;45.396;5.272;2022-07-30T07:40:18;3.63;;;2.50;;
14760;SDS011;7472;45.396;5.272;2022-07-30T07:42:47;2.53;;;2.10;;
14760;SDS011;7472;45.396;5.272;2022-07-30T07:45:14;4.15;;;2.60;;
14760;SDS011;7472;45.396;5.272;2022-07-30T07:47:42;4.03;;;2.30;;
14760;SDS011;7472;45.396;5.272;2022-07-30T07:50:09;8.13;;;3.15;;
14760;SDS011;7472;45.396;5.272;2022-07-30T07:52:37;3.60;;;2.92;;
14760;SDS011;7472;45.396;5.272;2022-07-30T07:55:04;4.72;;;2.00;;
14760;SDS011;7472;45.396;5.272;2022-07-30T07:57:36;4.90;;;2.38;;
14760;SDS011;7472;45.396;5.272;2022-07-30T08:00:06;3.47;;;2.15;;
14760;SDS011;7472;45.396;5.272;2022-07-30T08:02:34;5.50;;;2.10;;
14760;SDS011;7472;45.396;5.272;2022-07-30T08:05:01;5.35;;;2.17;;
14760;SDS011;7472;45.396;5.272;2022-07-30T08:07:29;4.22;;;2.10;;
14760;SDS011;7472;45.396;5.272;2022-07-30T08:09:56;3.42;;;1.65;;
14760;SDS011;7472;45.396;5.272;2022-07-30T08:12:24;3.15;;;1.98;;
14760;SDS011;7472;45.396;5.272;2022-07-30T08:14:52;3.58;;;1.90;;
14760;SDS011;7472;45.396;5.272;2022-07-30T08:17:21;3.15;;;1.90;;
14760;SDS011;7472;45.396;5.272;2022-07-30T08:19:48;2.90;;;1.60;;
14760;SDS011;7472;45.396;5.272;2022-07-30T08:22:16;6.22;;;1.63;;
14760;SDS011;7472;45.396;5.272;2022-07-30T08:24:43;2.38;;;1.48;;
14760;SDS011;7472;45.396;5.272;2022-07-30T08:27:11;2.83;;;1.60;;
14760;SDS011;7472;45.396;5.272;2022-07-30T08:29:38;6.43;;;1.60;;
14760;SDS011;7472;45.396;5.272;2022-07-30T08:32:05;4.15;;;1.33;;
14760;SDS011;7472;45.396;5.272;2022-07-30T08:34:34;4.60;;;1.65;;
14760;SDS011;7472;45.396;5.272;2022-07-30T08:37:01;6.05;;;1.40;;
14760;SDS011;7472;45.396;5.272;2022-07-30T08:39:29;3.70;;;1.30;;
14760;SDS011;7472;45.396;5.272;2022-07-30T08:41:56;3.28;;;1.67;;
14760;SDS011;7472;45.396;5.272;2022-07-30T08:44:24;5.20;;;1.50;;
14760;SDS011;7472;45.396;5.272;2022-07-30T08:46:52;3.08;;;1.45;;
14760;SDS011;7472;45.396;5.272;2022-07-30T08:49:20;3.13;;;1.90;;
14760;SDS011;7472;45.396;5.272;2022-07-30T08:51:50;5.70;;;1.33;;
14760;SDS011;7472;45.396;5.272;2022-07-30T08:54:18;4.82;;;1.63;;
14760;SDS011;7472;45.396;5.272;2022-07-30T08:56:45;7.25;;;1.65;;
14760;SDS011;7472;45.396;5.272;2022-07-30T08:59:14;4.25;;;1.63;;
14760;SDS011;7472;45.396;5.272;2022-07-30T09:01:42;3.92;;;1.58;;
14760;SDS011;7472;45.396;5.272;2022-07-30T09:04:10;8.98;;;1.38;;
14760;SDS011;7472;45.396;5.272;2022-07-30T09:06:38;3.10;;;1.58;;
14760;SDS011;7472;45.396;5.272;2022-07-30T09:09:07;4.43;;;1.48;;
14760;SDS011;7472;45.396;5.272;2022-07-30T09:11:34;7.00;;;1.52;;
14760;SDS011;7472;45.396;5.272;2022-07-30T09:14:08;3.65;;;1.50;;
14760;SDS011;7472;45.396;5.272;2022-07-30T09:16:35;3.88;;;1.63;;
14760;SDS011;7472;45.396;5.272;2022-07-30T09:19:13;4.65;;;1.60;;
14760;SDS011;7472;45.396;5.272;2022-07-30T09:21:41;4.05;;;1.55;;
14760;SDS011;7472;45.396;5.272;2022-07-30T09:24:10;4.03;;;1.58;;
14760;SDS011;7472;45.396;5.272;2022-07-30T09:26:51;2.15;;;1.38;;
14760;SDS011;7472;45.396;5.272;2022-07-30T09:29:20;2.80;;;1.30;;
14760;SDS011;7472;45.396;5.272;2022-07-30T09:31:55;3.33;;;1.45;;
14760;SDS011;7472;45.396;5.272;2022-07-30T09:34:23;3.28;;;1.38;;
14760;SDS011;7472;45.396;5.272;2022-07-30T09:36:51;6.70;;;2.03;;
14760;SDS011;7472;45.396;5.272;2022-07-30T09:39:28;2.28;;;1.00;;
14760;SDS011;7472;45.396;5.272;2022-07-30T09:41:55;4.88;;;1.70;;
14760;SDS011;7472;45.396;5.272;2022-07-30T09:44:24;3.58;;;1.25;;
14760;SDS011;7472;45.396;5.272;2022-07-30T09:46:51;3.22;;;1.42;;
14760;SDS011;7472;45.396;5.272;2022-07-30T09:49:19;5.25;;;1.40;;
14760;SDS011;7472;45.396;5.272;2022-07-30T09:51:47;5.55;;;1.80;;
14760;SDS011;7472;45.396;5.272;2022-07-30T09:54:15;1.65;;;1.30;;
14760;SDS011;7472;45.396;5.272;2022-07-30T09:56:43;3.53;;;1.35;;
14760;SDS011;7472;45.396;5.272;2022-07-30T10:01:59;1.85;;;1.27;;
14760;SDS011;7472;45.396;5.272;2022-07-30T10:04:27;2.28;;;1.38;;
14760;SDS011;7472;45.396;5.272;2022-07-30T10:06:55;3.90;;;1.38;;
14760;SDS011;7472;45.396;5.272;2022-07-30T10:09:26;4.13;;;1.30;;
14760;SDS011;7472;45.396;5.272;2022-07-30T10:11:56;2.03;;;0.93;;
14760;SDS011;7472;45.396;5.272;2022-07-30T10:14:24;1.65;;;1.13;;
14760;SDS011;7472;45.396;5.272;2022-07-30T10:16:54;3.00;;;1.77;;
14760;SDS011;7472;45.396;5.272;2022-07-30T10:19:22;4.28;;;1.23;;
14760;SDS011;7472;45.396;5.272;2022-07-30T10:21:50;4.95;;;1.15;;
14760;SDS011;7472;45.396;5.272;2022-07-30T10:24:21;3.08;;;1.20;;
14760;SDS011;7472;45.396;5.272;2022-07-30T10:26:49;3.60;;;1.33;;
14760;SDS011;7472;45.396;5.272;2022-07-30T10:29:19;5.40;;;1.60;;
14760;SDS011;7472;45.396;5.272;2022-07-30T10:31:47;2.03;;;1.10;;
14760;SDS011;7472;45.396;5.272;2022-07-30T10:34:15;1.50;;;1.30;;
14760;SDS011;7472;45.396;5.272;2022-07-30T10:36:43;8.07;;;1.55;;
14760;SDS011;7472;45.396;5.272;2022-07-30T10:39:12;5.95;;;1.17;;
14760;SDS011;7472;45.396;5.272;2022-07-30T10:41:43;2.63;;;1.50;;
14760;SDS011;7472;45.396;5.272;2022-07-30T10:46:59;2.22;;;1.48;;
14760;SDS011;7472;45.396;5.272;2022-07-30T10:49:27;4.03;;;1.30;;
14760;SDS011;7472;45.396;5.272;2022-07-30T10:51:55;3.42;;;1.50;;
14760;SDS011;7472;45.396;5.272;2022-07-30T10:54:39;4.63;;;1.23;;
14760;SDS011;7472;45.396;5.272;2022-07-30T10:57:07;2.67;;;1.20;;
14760;SDS011;7472;45.396;5.272;2022-07-30T11:02:24;3.22;;;1.33;;
14760;SDS011;7472;45.396;5.272;2022-07-30T11:04:55;4.68;;;1.10;;
14760;SDS011;7472;45.396;5.272;2022-07-30T11:07:42;2.08;;;1.30;;
14760;SDS011;7472;45.396;5.272;2022-07-30T11:10:32;2.10;;;1.10;;
14760;SDS011;7472;45.396;5.272;2022-07-30T11:13:00;1.85;;;1.38;;
14760;SDS011;7472;45.396;5.272;2022-07-30T11:18:11;3.00;;;1.20;;
14760;SDS011;7472;45.396;5.272;2022-07-30T11:20:38;1.45;;;1.30;;
14760;SDS011;7472;45.396;5.272;2022-07-30T11:23:09;3.53;;;1.65;;
14760;SDS011;7472;45.396;5.272;2022-07-30T11:25:37;1.85;;;0.85;;
14760;SDS011;7472;45.396;5.272;2022-07-30T11:28:06;2.03;;;1.10;;
14760;SDS011;7472;45.396;5.272;2022-07-30T11:30:34;2.90;;;1.27;;
14760;SDS011;7472;45.396;5.272;2022-07-30T11:33:21;2.30;;;1.40;;
14760;SDS011;7472;45.396;5.272;2022-07-30T11:36:04;1.92;;;1.40;;
14760;SDS011;7472;45.396;5.272;2022-07-30T11:41:14;3.78;;;1.38;;
14760;SDS011;7472;45.396;5.272;2022-07-30T11:43:41;2.22;;;1.15;;
14760;SDS011;7472;45.396;5.272;2022-07-30T11:46:09;1.85;;;1.20;;
14760;SDS011;7472;45.396;5.272;2022-07-30T11:48:40;3.60;;;1.42;;
14760;SDS011;7472;45.396;5.272;2022-07-30T11:51:08;3.80;;;1.20;;
14760;SDS011;7472;45.396;5.272;2022-07-30T11:53:36;4.60;;;1.50;;
14760;SDS011;7472;45.396;5.272;2022-07-30T11:56:03;2.63;;;1.33;;
14760;SDS011;7472;45.396;5.272;2022-07-30T11:58:32;1.63;;;1.30;;
14760;SDS011;7472;45.396;5.272;2022-07-30T12:01:02;3.40;;;1.05;;
14760;SDS011;7472;45.396;5.272;2022-07-30T12:03:29;1.77;;;1.60;;
14760;SDS011;7472;45.396;5.272;2022-07-30T12:06:03;1.67;;;1.23;;
14760;SDS011;7472;45.396;5.272;2022-07-30T12:08:37;3.15;;;1.20;;
14760;SDS011;7472;45.396;5.272;2022-07-30T12:11:06;3.65;;;1.95;;
14760;SDS011;7472;45.396;5.272;2022-07-30T12:13:33;1.90;;;1.20;;
14760;SDS011;7472;45.396;5.272;2022-07-30T12:16:02;2.92;;;1.35;;
14760;SDS011;7472;45.396;5.272;2022-07-30T12:18:33;1.88;;;1.30;;
14760;SDS011;7472;45.396;5.272;2022-07-30T12:21:01;2.85;;;1.38;;
14760;SDS011;7472;45.396;5.272;2022-07-30T12:23:30;2.33;;;1.55;;
14760;SDS011;7472;45.396;5.272;2022-07-30T12:25:57;3.53;;;1.33;;
14760;SDS011;7472;45.396;5.272;2022-07-30T12:28:25;1.63;;;1.10;;
14760;SDS011;7472;45.396;5.272;2022-07-30T12:30:53;5.03;;;1.30;;
14760;SDS011;7472;45.396;5.272;2022-07-30T12:33:21;1.20;;;1.10;;
14760;SDS011;7472;45.396;5.272;2022-07-30T12:35:50;1.90;;;1.10;;
14760;SDS011;7472;45.396;5.272;2022-07-30T12:38:18;4.15;;;1.30;;
14760;SDS011;7472;45.396;5.272;2022-07-30T12:40:54;2.40;;;1.67;;
14760;SDS011;7472;45.396;5.272;2022-07-30T12:46:07;6.43;;;1.25;;
14760;SDS011;7472;45.396;5.272;2022-07-30T12:48:34;2.78;;;1.00;;
14760;SDS011;7472;45.396;5.272;2022-07-30T12:51:05;1.95;;;1.30;;
14760;SDS011;7472;45.396;5.272;2022-07-30T12:53:32;2.20;;;1.20;;
14760;SDS011;7472;45.396;5.272;2022-07-30T12:56:10;3.63;;;1.20;;
14760;SDS011;7472;45.396;5.272;2022-07-30T12:58:38;1.10;;;1.00;;
14760;SDS011;7472;45.396;5.272;2022-07-30T13:01:06;2.78;;;1.10;;
14760;SDS011;7472;45.396;5.272;2022-07-30T13:03:34;1.95;;;1.02;;
14760;SDS011;7472;45.396;5.272;2022-07-30T13:06:11;2.00;;;1.20;;
14760;SDS011;7472;45.396;5.272;2022-07-30T13:08:46;2.00;;;1.20;;
14760;SDS011;7472;45.396;5.272;2022-07-30T13:11:15;2.60;;;1.20;;
14760;SDS011;7472;45.396;5.272;2022-07-30T13:13:42;2.63;;;1.08;;
14760;SDS011;7472;45.396;5.272;2022-07-30T13:16:10;4.72;;;1.23;;
14760;SDS011;7472;45.396;5.272;2022-07-30T13:18:38;2.45;;;1.10;;
14760;SDS011;7472;45.396;5.272;2022-07-30T13:21:06;1.45;;;1.30;;
14760;SDS011;7472;45.396;5.272;2022-07-30T13:23:33;2.28;;;1.10;;
14760;SDS011;7472;45.396;5.272;2022-07-30T13:26:01;1.48;;;1.10;;
14760;SDS011;7472;45.396;5.272;2022-07-30T13:28:30;2.65;;;1.10;;
14760;SDS011;7472;45.396;5.272;2022-07-30T13:30:58;2.13;;;1.00;;
14760;SDS011;7472;45.396;5.272;2022-07-30T13:33:25;2.40;;;1.05;;
14760;SDS011;7472;45.396;5.272;2022-07-30T13:35:53;6.13;;;1.30;;
14760;SDS011;7472;45.396;5.272;2022-07-30T13:38:21;2.72;;;1.38;;
14760;SDS011;7472;45.396;5.272;2022-07-30T13:40:48;2.75;;;1.50;;
14760;SDS011;7472;45.396;5.272;2022-07-30T13:43:16;3.90;;;1.15;;
14760;SDS011;7472;45.396;5.272;2022-07-30T13:45:46;1.25;;;1.10;;
14760;SDS011;7472;45.396;5.272;2022-07-30T13:48:13;3.47;;;1.42;;
14760;SDS011;7472;45.396;5.272;2022-07-30T13:50:41;2.35;;;1.10;;
14760;SDS011;7472;45.396;5.272;2022-07-30T13:53:09;3.47;;;1.20;;
14760;SDS011;7472;45.396;5.272;2022-07-30T13:55:37;3.30;;;1.10;;
14760;SDS011;7472;45.396;5.272;2022-07-30T13:58:05;2.95;;;1.23;;
14760;SDS011;7472;45.396;5.272;2022-07-30T14:00:33;3.80;;;1.13;;
14760;SDS011;7472;45.396;5.272;2022-07-30T14:03:03;3.35;;;1.20;;
14760;SDS011;7472;45.396;5.272;2022-07-30T14:05:31;3.92;;;1.13;;
14760;SDS011;7472;45.396;5.272;2022-07-30T14:08:00;4.03;;;3.72;;
14760;SDS011;7472;45.396;5.272;2022-07-30T14:10:28;4.35;;;1.30;;
14760;SDS011;7472;45.396;5.272;2022-07-30T14:12:56;3.75;;;1.35;;
14760;SDS011;7472;45.396;5.272;2022-07-30T14:15:24;3.17;;;1.58;;
14760;SDS011;7472;45.396;5.272;2022-07-30T14:17:52;2.20;;;1.20;;
14760;SDS011;7472;45.396;5.272;2022-07-30T14:20:21;2.10;;;0.90;;
14760;SDS011;7472;45.396;5.272;2022-07-30T14:22:49;1.77;;;0.98;;
14760;SDS011;7472;45.396;5.272;2022-07-30T14:25:16;1.92;;;0.95;;
14760;SDS011;7472;45.396;5.272;2022-07-30T14:27:44;1.10;;;1.00;;
14760;SDS011;7472;45.396;5.272;2022-07-30T14:30:12;3.35;;;1.10;;
14760;SDS011;7472;45.396;5.272;2022-07-30T14:32:39;3.10;;;1.20;;
14760;SDS011;7472;45.396;5.272;2022-07-30T14:35:07;1.50;;;1.13;;
14760;SDS011;7472;45.396;5.272;2022-07-30T14:37:37;3.42;;;1.08;;
14760;SDS011;7472;45.396;5.272;2022-07-30T14:40:06;2.72;;;1.23;;
14760;SDS011;7472;45.396;5.272;2022-07-30T14:42:34;7.65;;;1.48;;
14760;SDS011;7472;45.396;5.272;2022-07-30T14:45:01;3.60;;;1.27;;
14760;SDS011;7472;45.396;5.272;2022-07-30T14:47:29;1.30;;;1.20;;
14760;SDS011;7472;45.396;5.272;2022-07-30T14:49:56;3.05;;;1.20;;
14760;SDS011;7472;45.396;5.272;2022-07-30T14:52:23;2.47;;;1.15;;
14760;SDS011;7472;45.396;5.272;2022-07-30T14:54:52;3.90;;;1.30;;
14760;SDS011;7472;45.396;5.272;2022-07-30T14:57:19;3.85;;;1.40;;
14760;SDS011;7472;45.396;5.272;2022-07-30T14:59:47;1.77;;;1.10;;
14760;SDS011;7472;45.396;5.272;2022-07-30T15:02:15;6.50;;;1.30;;
14760;SDS011;7472;45.396;5.272;2022-07-30T15:04:42;2.30;;;1.23;;
14760;SDS011;7472;45.396;5.272;2022-07-30T15:07:11;3.70;;;1.10;;
14760;SDS011;7472;45.396;5.272;2022-07-30T15:09:38;2.67;;;1.13;;
14760;SDS011;7472;45.396;5.272;2022-07-30T15:12:07;1.50;;;0.93;;
14760;SDS011;7472;45.396;5.272;2022-07-30T15:14:35;1.70;;;1.30;;
14760;SDS011;7472;45.396;5.272;2022-07-30T15:17:02;2.97;;;1.20;;
14760;SDS011;7472;45.396;5.272;2022-07-30T15:19:30;2.83;;;1.60;;
14760;SDS011;7472;45.396;5.272;2022-07-30T15:21:58;5.38;;;1.48;;
14760;SDS011;7472;45.396;5.272;2022-07-30T15:24:26;1.95;;;0.95;;